Argyle, Iowa
Current Conditions -  °F | °C
As of 7:55 AM on Thursday 25 Dec 2014 (Local Time) from KEOK Reporting Station
Clear Clear  
Wind Chill: -4°   Ceiling: Unl
Heat Index:   Visibility: 10mi
Dew Point: -1°   Wind: 12mph
Humidity: 87%   Direction: 190°S
Pressure: 29.88"   Gusts: 21mph
Location:  40.53°N, 91.57°W
Report Text: KEOK 251355Z AUTO 19010G18KT 10SM CLR 01/M01 A2988 RMK AO2
Loading
Personal Weather Stations






























Interactive Weather Map New forecast layout! Learn more

10-Day Weather Forecast

Advertisements
Track Severe Weather on mobile